createdAt,value
2023-04-18T00:02:29.694Z,52101.69
2023-04-18T00:07:35.751Z,52125.69
2023-04-18T00:12:39.944Z,52109.69
2023-04-18T00:17:44.288Z,52137.69
2023-04-18T00:22:50.143Z,52149.69
2023-04-18T00:27:54.263Z,52101.69
2023-04-18T00:32:58.794Z,52105.69
2023-04-18T00:38:04.897Z,52113.69
2023-04-18T00:43:09.541Z,52123.69
2023-04-18T00:48:13.907Z,52135.69
2023-04-18T00:53:19.453Z,52151.69
2023-04-18T00:58:24.874Z,52125.69
2023-04-18T01:03:29.420Z,52125.69
2023-04-18T01:08:35.913Z,52151.69
2023-04-18T01:13:40.196Z,52143.69
2023-04-18T01:18:45.081Z,52115.69
2023-04-18T01:23:54.290Z,52175.69
2023-04-18T01:28:59.876Z,52189.72
2023-04-18T01:34:04.272Z,52149.69
2023-04-18T01:39:09.613Z,52161.69
2023-04-18T01:44:15.340Z,52159.69
2023-04-18T01:49:19.745Z,52123.69
2023-04-18T01:54:26.334Z,52165.69
2023-04-18T01:59:32.494Z,52177.69
2023-04-18T02:04:39.197Z,52139.69
2023-04-18T02:09:43.632Z,52181.69
2023-04-18T02:14:54.200Z,52145.69
2023-04-18T02:19:58.686Z,52111.69
2023-04-18T02:25:03.184Z,52149.69
2023-04-18T02:30:10.053Z,52155.69
2023-04-18T02:35:14.546Z,52131.69
2023-04-18T02:40:19.006Z,52125.69
2023-04-18T02:45:25.054Z,52125.69
2023-04-18T02:50:30.268Z,52113.69
2023-04-18T02:55:35.310Z,52149.69
2023-04-18T03:00:41.254Z,52129.69
2023-04-18T03:06:00.677Z,52161.69
2023-04-18T03:11:07.257Z,52135.69
2023-04-18T03:16:13.799Z,52117.69
2023-04-18T03:21:20.137Z,52161.69
2023-04-18T03:26:26.647Z,52149.69
2023-04-18T03:31:34.817Z,52159.69
2023-04-18T03:36:39.105Z,52123.69
2023-04-18T03:41:43.572Z,52157.69
2023-04-18T03:46:49.602Z,52155.69
2023-04-18T03:51:54.652Z,52145.69
2023-04-18T03:56:59.721Z,52113.69
2023-04-18T04:02:06.620Z,52167.69
2023-04-18T04:07:11.205Z,52161.69
2023-04-18T04:12:15.636Z,52173.69
2023-04-18T04:17:22.348Z,52159.69
2023-04-18T04:22:27.678Z,52137.69
2023-04-18T04:27:34.264Z,52127.69
2023-04-18T04:32:40.880Z,52179.69
2023-04-18T04:37:45.424Z,52153.69
2023-04-18T04:42:59.479Z,52169.72
2023-04-18T04:48:11.592Z,52199.72
2023-04-18T04:53:16.154Z,52123.69
2023-04-18T04:58:20.933Z,52147.69
2023-04-18T05:03:45.333Z,52153.69
2023-04-18T05:08:49.830Z,52149.69
2023-04-18T05:13:54.129Z,52181.69
2023-04-18T05:18:59.925Z,52209.72
2023-04-18T05:24:04.073Z,52223.72
2023-04-18T05:29:08.441Z,52145.69
2023-04-18T05:34:14.794Z,52177.69
2023-04-18T05:39:19.245Z,52161.69
2023-04-18T05:44:24.382Z,52113.69
2023-04-18T05:49:30.044Z,52109.69
2023-04-18T05:54:34.630Z,52105.69
2023-04-18T05:59:39.274Z,52085.69
2023-04-18T06:04:45.350Z,51997.69
2023-04-18T06:09:50.026Z,51945.69
2023-04-18T06:14:54.565Z,51923.72
2023-04-18T06:20:00.325Z,51755.72
2023-04-18T06:25:04.878Z,51669.72
2023-04-18T06:30:10.265Z,51663.72
2023-04-18T06:35:15.885Z,51577.72
2023-04-18T06:40:20.236Z,51445.75
2023-04-18T06:45:24.907Z,51345.75
2023-04-18T06:50:30.572Z,51439.75
2023-04-18T06:55:35.601Z,51339.78
2023-04-18T07:00:40.026Z,51461.75
2023-04-18T07:05:46.518Z,51441.75
2023-04-18T07:10:50.726Z,51577.72
2023-04-18T07:15:54.854Z,51585.72
2023-04-18T07:21:00.836Z,51645.72
2023-04-18T07:26:05.928Z,51543.75
2023-04-18T07:31:11.683Z,51421.75
2023-04-18T07:36:17.617Z,51233.78
2023-04-18T07:41:22.351Z,51181.81
2023-04-18T07:46:26.865Z,51255.78
2023-04-18T07:51:32.774Z,51649.72
2023-04-18T07:56:37.126Z,51765.72
2023-04-18T08:01:41.758Z,52013.69
2023-04-18T08:06:47.327Z,51547.75
2023-04-18T08:11:51.693Z,51297.78
2023-04-18T08:16:56.000Z,51421.75
2023-04-18T08:22:11.104Z,51679.72
2023-04-18T08:27:15.872Z,51329.78
2023-04-18T08:32:20.080Z,51311.78
2023-04-18T08:37:28.030Z,51327.78
2023-04-18T08:42:33.453Z,51433.75
2023-04-18T08:47:37.908Z,51215.78
2023-04-18T08:52:48.366Z,51097.81
2023-04-18T08:57:55.818Z,50977.84
2023-04-18T09:03:00.777Z,51155.81
2023-04-18T09:08:24.836Z,51049.84
2023-04-18T09:13:40.112Z,51005.84
2023-04-18T09:19:13.239Z,51139.81
2023-04-18T09:24:24.376Z,51117.81
2023-04-18T09:29:46.745Z,51101.81
2023-04-18T09:34:51.560Z,51053.84
2023-04-18T09:39:57.410Z,51215.78
2023-04-18T09:45:07.986Z,51075.81
2023-04-18T09:50:12.774Z,51093.81
2023-04-18T09:55:20.125Z,51137.81
2023-04-18T10:00:26.843Z,51353.75
2023-04-18T10:05:33.525Z,51347.75
2023-04-18T10:10:39.418Z,51305.78
2023-04-18T10:15:46.514Z,50977.84
2023-04-18T10:20:50.862Z,51065.81
2023-04-18T10:25:56.658Z,51215.78
2023-04-18T10:31:05.764Z,51085.81
2023-04-18T10:36:19.295Z,51161.81
2023-04-18T10:41:26.964Z,51317.78
2023-04-18T10:46:32.841Z,51277.78
2023-04-18T10:51:37.179Z,51173.81
2023-04-18T10:56:54.042Z,51179.81
2023-04-18T11:02:00.950Z,51211.78
2023-04-18T11:07:06.403Z,51139.81
2023-04-18T11:12:12.953Z,51047.84
2023-04-18T11:17:19.160Z,50991.84
2023-04-18T11:22:23.613Z,51021.84
2023-04-18T11:27:31.133Z,51177.81
2023-04-18T11:32:36.727Z,51153.81
2023-04-18T11:37:42.327Z,51117.81
2023-04-18T11:42:48.624Z,51165.81
2023-04-18T11:47:58.326Z,51229.78
2023-04-18T11:53:02.790Z,51297.78
2023-04-18T11:58:08.386Z,51271.78
2023-04-18T12:03:17.489Z,51283.78
2023-04-18T12:08:22.629Z,51255.78
2023-04-18T12:13:33.704Z,51257.78
2023-04-18T12:18:39.396Z,51199.78
2023-04-18T12:23:46.161Z,51237.78
2023-04-18T12:28:53.948Z,51211.78
2023-04-18T12:34:00.285Z,51303.78
2023-04-18T12:39:04.758Z,51149.81
2023-04-18T12:44:10.678Z,51041.84
2023-04-18T12:49:14.965Z,51057.84
2023-04-18T12:54:20.014Z,50953.84
2023-04-18T12:59:25.897Z,51031.84
2023-04-18T13:04:30.927Z,51165.81
2023-04-18T13:09:35.667Z,51105.81
2023-04-18T13:14:41.358Z,51217.78
2023-04-18T13:19:46.109Z,51119.81
2023-04-18T13:24:50.423Z,51065.81
2023-04-18T13:29:57.495Z,51211.78
2023-04-18T13:35:03.498Z,51343.78
2023-04-18T13:40:09.023Z,51381.75
2023-04-18T13:45:14.882Z,51233.78
2023-04-18T13:50:19.427Z,51307.78
2023-04-18T13:55:25.620Z,51301.78
2023-04-18T14:00:31.602Z,51153.81
2023-04-18T14:05:36.162Z,51277.78
2023-04-18T14:10:40.684Z,51323.78
2023-04-18T14:15:46.395Z,51251.78
2023-04-18T14:20:50.747Z,50885.88
2023-04-18T14:25:55.167Z,50995.84
2023-04-18T14:31:03.074Z,50939.88
2023-04-18T14:36:08.819Z,50937.88
2023-04-18T14:41:13.048Z,51013.84
2023-04-18T14:46:19.052Z,50939.88
2023-04-18T14:51:24.249Z,50857.88
2023-04-18T14:56:28.925Z,50795.91
2023-04-18T15:01:34.557Z,50805.91
2023-04-18T15:06:39.245Z,50765.91
2023-04-18T15:11:43.906Z,50729.94
2023-04-18T15:16:52.278Z,50663.94
2023-04-18T15:21:56.985Z,50635.97
2023-04-18T15:27:01.659Z,50649.97
2023-04-18T15:32:07.484Z,50601.97
2023-04-18T15:37:11.649Z,50627.97
2023-04-18T15:42:15.928Z,50675.94
2023-04-18T15:47:21.470Z,50625.97
2023-04-18T15:52:26.129Z,50601.97
2023-04-18T15:57:31.129Z,50621.97
2023-04-18T16:02:37.357Z,50601.97
2023-04-18T16:07:42.430Z,50635.97
2023-04-18T16:12:47.642Z,50569.97
2023-04-18T16:17:53.377Z,50595.97
2023-04-18T16:22:57.765Z,50558.00
2023-04-18T16:28:01.929Z,50571.97
2023-04-18T16:33:07.582Z,50508.00
2023-04-18T16:38:12.156Z,50550.00
2023-04-18T16:43:16.324Z,50524.00
2023-04-18T16:48:21.892Z,50530.00
2023-04-18T16:53:26.339Z,50498.00
2023-04-18T16:58:30.581Z,50506.00
2023-04-18T17:03:36.995Z,50538.00
2023-04-18T17:08:41.649Z,50546.00
2023-04-18T17:13:50.666Z,50554.00
2023-04-18T17:19:01.915Z,50564.00
2023-04-18T17:24:07.248Z,50532.00
2023-04-18T17:29:11.937Z,50577.97
2023-04-18T17:34:17.567Z,50552.00
2023-04-18T17:39:22.813Z,50554.00
2023-04-18T17:44:26.935Z,50550.00
2023-04-18T17:49:35.126Z,50538.00
2023-04-18T17:54:39.432Z,50564.00
2023-04-18T17:59:43.740Z,50607.97
2023-04-18T18:04:49.645Z,50581.97
2023-04-18T18:09:53.897Z,50562.00
2023-04-18T18:14:58.626Z,50490.00
2023-04-18T18:20:04.273Z,50524.00
2023-04-18T18:25:09.540Z,50474.03
2023-04-18T18:30:14.594Z,50478.03
2023-04-18T18:35:20.787Z,50512.00
2023-04-18T18:40:25.574Z,50502.00
2023-04-18T18:45:30.154Z,50538.00
2023-04-18T18:50:36.010Z,50613.97
2023-04-18T18:55:40.288Z,50609.97
2023-04-18T19:00:44.862Z,50685.94
2023-04-18T19:05:50.834Z,50833.91
2023-04-18T19:10:55.328Z,51047.84
2023-04-18T19:15:59.845Z,51277.78
2023-04-18T19:21:06.186Z,51513.75
2023-04-18T19:26:10.710Z,51613.72
2023-04-18T19:31:15.047Z,51709.72
2023-04-18T19:36:22.622Z,51759.72
2023-04-18T19:41:27.455Z,51817.72
2023-04-18T19:46:32.086Z,51837.72
2023-04-18T19:51:38.185Z,51849.72
2023-04-18T19:56:42.524Z,51827.72
2023-04-18T20:01:46.683Z,51853.72
2023-04-18T20:06:53.766Z,51885.72
2023-04-18T20:12:00.652Z,51925.72
2023-04-18T20:17:05.003Z,51917.72
2023-04-18T20:22:10.585Z,51919.69
2023-04-18T20:27:14.761Z,51985.69
2023-04-18T20:32:19.201Z,51941.72
2023-04-18T20:37:25.116Z,51963.69
2023-04-18T20:42:29.266Z,51905.72
2023-04-18T20:47:34.198Z,51923.72
2023-04-18T20:52:42.904Z,51973.69
2023-04-18T20:57:47.372Z,51967.69
2023-04-18T21:02:51.915Z,51965.69
2023-04-18T21:07:59.942Z,51953.69
2023-04-18T21:13:04.313Z,51965.69
2023-04-18T21:18:08.559Z,51955.69
2023-04-18T21:23:14.443Z,51947.69
2023-04-18T21:28:20.824Z,51897.72
2023-04-18T21:33:26.313Z,51871.72
2023-04-18T21:38:32.395Z,51921.72
2023-04-18T21:43:36.705Z,51903.72
2023-04-18T21:48:41.894Z,51917.72
2023-04-18T21:53:47.996Z,51899.72
2023-04-18T21:58:52.134Z,51899.72
2023-04-18T22:03:56.427Z,51915.72
2023-04-18T22:09:02.770Z,51925.72
2023-04-18T22:14:06.844Z,51903.72
2023-04-18T22:19:11.345Z,51907.72
2023-04-18T22:24:18.463Z,51937.69
2023-04-18T22:29:23.273Z,51927.72
2023-04-18T22:34:27.842Z,52051.69
2023-04-18T22:39:33.719Z,52067.69
2023-04-18T22:44:38.103Z,52057.69
2023-04-18T22:49:42.269Z,52113.69
2023-04-18T22:54:48.052Z,52113.69
2023-04-18T22:59:52.250Z,52097.69
2023-04-18T23:04:59.172Z,52097.69
2023-04-18T23:10:05.921Z,52083.69
2023-04-18T23:15:11.996Z,52093.69
2023-04-18T23:20:16.756Z,52087.69
2023-04-18T23:25:22.295Z,52101.69
2023-04-18T23:30:27.156Z,52057.69
2023-04-18T23:35:31.509Z,52043.69
2023-04-18T23:40:37.245Z,52079.69
2023-04-18T23:45:41.385Z,52047.69
2023-04-18T23:50:47.226Z,52053.69
2023-04-18T23:55:54.857Z,52037.69
